VTBS/BKK METAR and TAF weather

Enter ICAO airport designator
Station Type Date Time Source
VTBS METAR 2020/01/22 12:00 UTC NOAA

VTBS 221200Z 21005KT 7000 NSC 29/24 Q1012 NOSIG


Station Type Date Time Source
VTBS Decoded METAR 2020/01/22 12:00 UTC NOAA

Chon Buri, Thailand (VTBS) 13-22N 100-59E 2M
Jan 22, 2020 - 07:00 AM EST / 2020.01.22 1200 UTC
Wind: from the SSW (210 degrees) at 6 MPH (5 KT):0
Visibility: 4 mile(s):0
Temperature: 84 F (29 C)
Dew Point: 75 F (24 C)
Relative Humidity: 74%
Pressure (altimeter): 29.88 in. Hg (1012 hPa)
ob: VTBS 221200Z 21005KT 7000 NSC 29/24 Q1012 NOSIG
cycle: 12

Station Type Date Time Source
VTBS TAF 2020/01/22 12:00 UTC NOAA

TAF VTBS 221100Z 2212/2318 20005KT 7000 FEW030
BECMG 2223/2301 08005KT 5000 BR FEW018
BECMG 2302/2304 14005KT 8000 NSW FEW020
BECMG 2310/2312 21008KT FEW030

Example: see airport list